sensor_id;sensor_type;location;lat;lon;timestamp;temperature;humidity
44435;DHT22;30138;20.964;105.830;2022-09-28T00:04:52;31.00;99.90
44435;DHT22;30138;20.964;105.830;2022-09-28T00:09:59;31.00;99.90
44435;DHT22;30138;20.964;105.830;2022-09-28T00:15:09;31.00;99.90
44435;DHT22;30138;20.964;105.830;2022-09-28T00:20:16;31.00;99.90
44435;DHT22;30138;20.964;105.830;2022-09-28T00:25:24;31.00;99.90
44435;DHT22;30138;20.964;105.830;2022-09-28T00:30:36;31.00;99.90
44435;DHT22;30138;20.964;105.830;2022-09-28T00:35:43;31.00;99.90
44435;DHT22;30138;20.964;105.830;2022-09-28T00:40:49;31.00;99.90
44435;DHT22;30138;20.964;105.830;2022-09-28T00:46:03;31.00;99.90
44435;DHT22;30138;20.964;105.830;2022-09-28T00:51:13;31.00;99.90
44435;DHT22;30138;20.964;105.830;2022-09-28T00:56:23;31.00;99.90
44435;DHT22;30138;20.964;105.830;2022-09-28T01:01:33;31.00;99.90
44435;DHT22;30138;20.964;105.830;2022-09-28T01:06:40;31.00;99.90
44435;DHT22;30138;20.964;105.830;2022-09-28T01:11:46;30.90;99.90
44435;DHT22;30138;20.964;105.830;2022-09-28T01:17:02;31.00;99.90
44435;DHT22;30138;20.964;105.830;2022-09-28T01:22:41;31.00;99.90
44435;DHT22;30138;20.964;105.830;2022-09-28T01:28:14;31.00;99.90
44435;DHT22;30138;20.964;105.830;2022-09-28T01:33:24;31.00;99.90
44435;DHT22;30138;20.964;105.830;2022-09-28T01:38:35;31.00;99.90
44435;DHT22;30138;20.964;105.830;2022-09-28T01:43:48;30.90;99.90
44435;DHT22;30138;20.964;105.830;2022-09-28T01:49:00;30.90;99.90
44435;DHT22;30138;20.964;105.830;2022-09-28T01:54:08;31.00;99.90
44435;DHT22;30138;20.964;105.830;2022-09-28T01:59:24;30.90;99.90
44435;DHT22;30138;20.964;105.830;2022-09-28T02:04:34;30.90;99.90
44435;DHT22;30138;20.964;105.830;2022-09-28T02:09:51;30.90;99.90
44435;DHT22;30138;20.964;105.830;2022-09-28T02:15:09;30.90;99.90
44435;DHT22;30138;20.964;105.830;2022-09-28T02:20:17;30.90;99.90
44435;DHT22;30138;20.964;105.830;2022-09-28T02:25:29;30.90;99.90
44435;DHT22;30138;20.964;105.830;2022-09-28T02:30:42;30.90;99.90
44435;DHT22;30138;20.964;105.830;2022-09-28T02:35:49;30.90;99.90
44435;DHT22;30138;20.964;105.830;2022-09-28T02:41:02;30.90;99.90
44435;DHT22;30138;20.964;105.830;2022-09-28T02:46:22;30.90;99.90
44435;DHT22;30138;20.964;105.830;2022-09-28T02:51:51;30.90;99.90
44435;DHT22;30138;20.964;105.830;2022-09-28T02:57:14;30.90;99.90
44435;DHT22;30138;20.964;105.830;2022-09-28T03:02:30;30.90;99.90
44435;DHT22;30138;20.964;105.830;2022-09-28T03:07:43;30.90;99.90
44435;DHT22;30138;20.964;105.830;2022-09-28T03:12:53;30.80;99.90
44435;DHT22;30138;20.964;105.830;2022-09-28T03:18:05;30.80;99.90
44435;DHT22;30138;20.964;105.830;2022-09-28T03:23:12;30.80;99.90
44435;DHT22;30138;20.964;105.830;2022-09-28T03:28:19;30.80;99.90
44435;DHT22;30138;20.964;105.830;2022-09-28T03:33:28;30.80;99.90
44435;DHT22;30138;20.964;105.830;2022-09-28T03:38:35;30.80;99.90
44435;DHT22;30138;20.964;105.830;2022-09-28T03:43:43;30.80;99.90
44435;DHT22;30138;20.964;105.830;2022-09-28T03:48:55;30.90;99.90
44435;DHT22;30138;20.964;105.830;2022-09-28T03:54:05;30.80;99.90
44435;DHT22;30138;20.964;105.830;2022-09-28T03:59:12;30.80;99.90
44435;DHT22;30138;20.964;105.830;2022-09-28T04:04:22;30.80;99.90
44435;DHT22;30138;20.964;105.830;2022-09-28T04:09:29;30.80;99.90
44435;DHT22;30138;20.964;105.830;2022-09-28T04:14:36;30.80;99.90
44435;DHT22;30138;20.964;105.830;2022-09-28T04:19:45;30.80;99.90
44435;DHT22;30138;20.964;105.830;2022-09-28T04:25:02;30.80;99.90
44435;DHT22;30138;20.964;105.830;2022-09-28T04:30:10;30.80;99.90
44435;DHT22;30138;20.964;105.830;2022-09-28T04:35:22;30.80;99.90
44435;DHT22;30138;20.964;105.830;2022-09-28T04:40:29;30.70;99.90
44435;DHT22;30138;20.964;105.830;2022-09-28T04:45:36;30.70;99.90
44435;DHT22;30138;20.964;105.830;2022-09-28T04:50:55;30.80;99.90
44435;DHT22;30138;20.964;105.830;2022-09-28T04:56:03;30.70;99.90
44435;DHT22;30138;20.964;105.830;2022-09-28T05:01:12;30.70;99.90
44435;DHT22;30138;20.964;105.830;2022-09-28T05:06:33;30.70;99.90
44435;DHT22;30138;20.964;105.830;2022-09-28T05:11:45;30.70;99.90
44435;DHT22;30138;20.964;105.830;2022-09-28T05:17:00;30.70;99.90
44435;DHT22;30138;20.964;105.830;2022-09-28T05:22:25;30.70;99.90
44435;DHT22;30138;20.964;105.830;2022-09-28T05:27:33;30.70;99.90
44435;DHT22;30138;20.964;105.830;2022-09-28T05:32:44;30.70;99.90
44435;DHT22;30138;20.964;105.830;2022-09-28T05:38:07;30.60;99.90
44435;DHT22;30138;20.964;105.830;2022-09-28T05:43:14;30.60;99.90
44435;DHT22;30138;20.964;105.830;2022-09-28T05:48:22;30.70;99.90
44435;DHT22;30138;20.964;105.830;2022-09-28T05:53:34;30.70;99.90
44435;DHT22;30138;20.964;105.830;2022-09-28T05:58:44;30.60;99.90
44435;DHT22;30138;20.964;105.830;2022-09-28T06:03:58;30.60;99.90
44435;DHT22;30138;20.964;105.830;2022-09-28T06:09:10;30.60;99.90
44435;DHT22;30138;20.964;105.830;2022-09-28T06:14:58;30.60;99.90
44435;DHT22;30138;20.964;105.830;2022-09-28T06:20:15;30.60;99.90
44435;DHT22;30138;20.964;105.830;2022-09-28T06:25:33;30.60;99.90
44435;DHT22;30138;20.964;105.830;2022-09-28T06:30:40;30.60;99.90
44435;DHT22;30138;20.964;105.830;2022-09-28T06:35:52;30.50;99.90
44435;DHT22;30138;20.964;105.830;2022-09-28T06:41:02;30.50;99.90
44435;DHT22;30138;20.964;105.830;2022-09-28T06:46:09;30.50;99.90
44435;DHT22;30138;20.964;105.830;2022-09-28T06:51:34;30.50;99.90
44435;DHT22;30138;20.964;105.830;2022-09-28T06:56:56;30.50;99.90
44435;DHT22;30138;20.964;105.830;2022-09-28T07:02:07;30.50;99.90
44435;DHT22;30138;20.964;105.830;2022-09-28T07:07:37;30.50;99.90
44435;DHT22;30138;20.964;105.830;2022-09-28T07:12:58;30.50;99.90
44435;DHT22;30138;20.964;105.830;2022-09-28T07:18:16;30.40;99.90
44435;DHT22;30138;20.964;105.830;2022-09-28T07:23:23;30.40;99.90
44435;DHT22;30138;20.964;105.830;2022-09-28T07:28:53;30.40;99.90
44435;DHT22;30138;20.964;105.830;2022-09-28T07:34:18;30.40;99.90
44435;DHT22;30138;20.964;105.830;2022-09-28T07:39:40;30.40;99.90
44435;DHT22;30138;20.964;105.830;2022-09-28T07:45:07;30.40;99.90
44435;DHT22;30138;20.964;105.830;2022-09-28T07:50:15;30.40;99.90
44435;DHT22;30138;20.964;105.830;2022-09-28T07:55:51;30.30;99.90
44435;DHT22;30138;20.964;105.830;2022-09-28T08:01:21;30.30;99.90
44435;DHT22;30138;20.964;105.830;2022-09-28T08:06:30;30.30;99.90
44435;DHT22;30138;20.964;105.830;2022-09-28T08:11:38;30.30;99.90
44435;DHT22;30138;20.964;105.830;2022-09-28T08:17:00;30.30;99.90
44435;DHT22;30138;20.964;105.830;2022-09-28T08:22:32;30.20;99.90
44435;DHT22;30138;20.964;105.830;2022-09-28T08:27:39;30.20;99.90
44435;DHT22;30138;20.964;105.830;2022-09-28T08:32:53;30.20;99.90
44435;DHT22;30138;20.964;105.830;2022-09-28T08:38:17;30.20;99.90
44435;DHT22;30138;20.964;105.830;2022-09-28T08:49:34;30.20;99.90
44435;DHT22;30138;20.964;105.830;2022-09-28T08:54:57;30.10;99.90
44435;DHT22;30138;20.964;105.830;2022-09-28T09:00:19;30.10;99.90
44435;DHT22;30138;20.964;105.830;2022-09-28T09:05:41;30.10;99.90
44435;DHT22;30138;20.964;105.830;2022-09-28T09:11:20;30.10;99.90
44435;DHT22;30138;20.964;105.830;2022-09-28T09:16:47;30.10;99.90
44435;DHT22;30138;20.964;105.830;2022-09-28T09:22:38;30.10;99.90
44435;DHT22;30138;20.964;105.830;2022-09-28T09:27:56;30.00;99.90
44435;DHT22;30138;20.964;105.830;2022-09-28T09:39:30;30.00;99.90
44435;DHT22;30138;20.964;105.830;2022-09-28T09:45:26;30.00;99.90
44435;DHT22;30138;20.964;105.830;2022-09-28T09:51:15;30.00;99.90
44435;DHT22;30138;20.964;105.830;2022-09-28T09:56:30;30.00;99.90
44435;DHT22;30138;20.964;105.830;2022-09-28T10:02:09;29.90;99.90
44435;DHT22;30138;20.964;105.830;2022-09-28T10:07:36;29.90;99.90
44435;DHT22;30138;20.964;105.830;2022-09-28T10:12:49;29.90;99.90
44435;DHT22;30138;20.964;105.830;2022-09-28T10:17:58;29.90;99.90
44435;DHT22;30138;20.964;105.830;2022-09-28T10:23:27;29.90;99.90
44435;DHT22;30138;20.964;105.830;2022-09-28T10:28:42;29.90;99.90
44435;DHT22;30138;20.964;105.830;2022-09-28T10:33:54;29.90;99.90
44435;DHT22;30138;20.964;105.830;2022-09-28T10:39:03;29.90;99.90
44435;DHT22;30138;20.964;105.830;2022-09-28T10:44:17;29.80;99.90
44435;DHT22;30138;20.964;105.830;2022-09-28T10:49:40;29.80;99.90
44435;DHT22;30138;20.964;105.830;2022-09-28T10:54:53;29.80;99.90
44435;DHT22;30138;20.964;105.830;2022-09-28T11:00:03;29.80;99.90
44435;DHT22;30138;20.964;105.830;2022-09-28T11:05:33;29.80;99.90
44435;DHT22;30138;20.964;105.830;2022-09-28T11:10:40;29.80;99.90
44435;DHT22;30138;20.964;105.830;2022-09-28T11:15:51;29.80;99.90
44435;DHT22;30138;20.964;105.830;2022-09-28T11:21:14;29.70;99.90
44435;DHT22;30138;20.964;105.830;2022-09-28T11:26:39;29.70;99.90
44435;DHT22;30138;20.964;105.830;2022-09-28T11:31:59;29.80;99.90
44435;DHT22;30138;20.964;105.830;2022-09-28T11:37:33;29.70;99.90
44435;DHT22;30138;20.964;105.830;2022-09-28T11:42:53;29.70;99.90
44435;DHT22;30138;20.964;105.830;2022-09-28T11:48:11;29.70;99.90
44435;DHT22;30138;20.964;105.830;2022-09-28T11:53:24;29.70;99.90
44435;DHT22;30138;20.964;105.830;2022-09-28T11:58:38;29.70;99.90
44435;DHT22;30138;20.964;105.830;2022-09-28T12:03:51;29.70;99.90
44435;DHT22;30138;20.964;105.830;2022-09-28T12:09:05;29.60;99.90
44435;DHT22;30138;20.964;105.830;2022-09-28T12:14:32;29.70;99.90
44435;DHT22;30138;20.964;105.830;2022-09-28T12:19:46;29.70;99.90
44435;DHT22;30138;20.964;105.830;2022-09-28T12:24:56;29.60;99.90
44435;DHT22;30138;20.964;105.830;2022-09-28T12:30:05;29.60;99.90
44435;DHT22;30138;20.964;105.830;2022-09-28T12:35:26;29.60;99.90
44435;DHT22;30138;20.964;105.830;2022-09-28T12:40:47;29.60;99.90
44435;DHT22;30138;20.964;105.830;2022-09-28T12:46:10;29.60;99.90
44435;DHT22;30138;20.964;105.830;2022-09-28T12:51:40;29.60;99.90
44435;DHT22;30138;20.964;105.830;2022-09-28T12:57:05;29.60;99.90
44435;DHT22;30138;20.964;105.830;2022-09-28T13:08:34;29.50;99.90
44435;DHT22;30138;20.964;105.830;2022-09-28T13:13:57;29.50;99.90
44435;DHT22;30138;20.964;105.830;2022-09-28T13:19:18;29.50;99.90
44435;DHT22;30138;20.964;105.830;2022-09-28T13:24:37;29.50;99.90
44435;DHT22;30138;20.964;105.830;2022-09-28T13:29:59;29.50;99.90
44435;DHT22;30138;20.964;105.830;2022-09-28T13:35:14;29.50;99.90
44435;DHT22;30138;20.964;105.830;2022-09-28T13:41:10;29.50;99.90
44435;DHT22;30138;20.964;105.830;2022-09-28T13:46:26;29.50;99.90
44435;DHT22;30138;20.964;105.830;2022-09-28T13:52:02;29.40;99.90
44435;DHT22;30138;20.964;105.830;2022-09-28T13:57:28;29.50;99.90
44435;DHT22;30138;20.964;105.830;2022-09-28T14:02:57;29.40;99.90
44435;DHT22;30138;20.964;105.830;2022-09-28T14:08:33;29.50;99.90
44435;DHT22;30138;20.964;105.830;2022-09-28T14:14:05;29.50;99.90
44435;DHT22;30138;20.964;105.830;2022-09-28T14:19:42;29.40;99.90
44435;DHT22;30138;20.964;105.830;2022-09-28T14:25:10;29.40;99.90
44435;DHT22;30138;20.964;105.830;2022-09-28T14:30:25;29.40;99.90
44435;DHT22;30138;20.964;105.830;2022-09-28T14:35:58;29.40;99.90
44435;DHT22;30138;20.964;105.830;2022-09-28T14:41:22;29.40;99.90
44435;DHT22;30138;20.964;105.830;2022-09-28T14:46:40;29.40;99.90
44435;DHT22;30138;20.964;105.830;2022-09-28T14:52:09;29.40;99.90
44435;DHT22;30138;20.964;105.830;2022-09-28T14:57:21;29.30;99.90
44435;DHT22;30138;20.964;105.830;2022-09-28T15:02:35;29.30;99.90
44435;DHT22;30138;20.964;105.830;2022-09-28T15:07:46;29.40;99.90
44435;DHT22;30138;20.964;105.830;2022-09-28T15:12:57;29.30;99.90
44435;DHT22;30138;20.964;105.830;2022-09-28T15:23:55;29.30;99.90
44435;DHT22;30138;20.964;105.830;2022-09-28T15:29:01;29.30;99.90
44435;DHT22;30138;20.964;105.830;2022-09-28T15:34:31;29.30;99.90
44435;DHT22;30138;20.964;105.830;2022-09-28T15:39:59;29.30;99.90
44435;DHT22;30138;20.964;105.830;2022-09-28T15:45:31;29.30;99.90
44435;DHT22;30138;20.964;105.830;2022-09-28T15:51:02;29.30;99.90
44435;DHT22;30138;20.964;105.830;2022-09-28T15:56:12;29.30;99.90
44435;DHT22;30138;20.964;105.830;2022-09-28T16:01:29;29.30;99.90
44435;DHT22;30138;20.964;105.830;2022-09-28T16:07:04;29.30;99.90
44435;DHT22;30138;20.964;105.830;2022-09-28T16:12:25;29.30;99.90
44435;DHT22;30138;20.964;105.830;2022-09-28T16:17:38;29.30;99.90
44435;DHT22;30138;20.964;105.830;2022-09-28T16:22:46;29.30;99.90
44435;DHT22;30138;20.964;105.830;2022-09-28T16:27:54;29.30;99.90
44435;DHT22;30138;20.964;105.830;2022-09-28T16:33:02;29.30;99.90
44435;DHT22;30138;20.964;105.830;2022-09-28T16:38:15;29.20;99.90
44435;DHT22;30138;20.964;105.830;2022-09-28T16:43:24;29.20;99.90
44435;DHT22;30138;20.964;105.830;2022-09-28T16:48:33;29.20;99.90
44435;DHT22;30138;20.964;105.830;2022-09-28T16:53:44;29.20;99.90
44435;DHT22;30138;20.964;105.830;2022-09-28T16:59:10;29.20;99.90
44435;DHT22;30138;20.964;105.830;2022-09-28T17:04:16;29.20;99.90
44435;DHT22;30138;20.964;105.830;2022-09-28T17:09:24;29.20;99.90
44435;DHT22;30138;20.964;105.830;2022-09-28T17:14:31;29.20;99.90
44435;DHT22;30138;20.964;105.830;2022-09-28T17:19:38;29.10;99.90
44435;DHT22;30138;20.964;105.830;2022-09-28T17:24:46;29.20;99.90
44435;DHT22;30138;20.964;105.830;2022-09-28T17:29:52;29.20;99.90
44435;DHT22;30138;20.964;105.830;2022-09-28T17:35:00;29.10;99.90
44435;DHT22;30138;20.964;105.830;2022-09-28T17:40:20;29.10;99.90
44435;DHT22;30138;20.964;105.830;2022-09-28T17:45:30;29.20;99.90
44435;DHT22;30138;20.964;105.830;2022-09-28T17:50:40;29.10;99.90
44435;DHT22;30138;20.964;105.830;2022-09-28T17:55:50;29.10;99.90
44435;DHT22;30138;20.964;105.830;2022-09-28T18:00:56;29.10;99.90
44435;DHT22;30138;20.964;105.830;2022-09-28T18:06:05;29.10;99.90
44435;DHT22;30138;20.964;105.830;2022-09-28T18:11:16;29.10;99.90
44435;DHT22;30138;20.964;105.830;2022-09-28T18:16:22;29.10;99.90
44435;DHT22;30138;20.964;105.830;2022-09-28T18:21:31;29.10;99.90
44435;DHT22;30138;20.964;105.830;2022-09-28T18:26:39;29.00;99.90
44435;DHT22;30138;20.964;105.830;2022-09-28T18:31:46;29.10;99.90
44435;DHT22;30138;20.964;105.830;2022-09-28T18:36:52;29.10;99.90
44435;DHT22;30138;20.964;105.830;2022-09-28T18:42:00;29.10;99.90
44435;DHT22;30138;20.964;105.830;2022-09-28T18:47:06;29.00;99.90
44435;DHT22;30138;20.964;105.830;2022-09-28T18:52:16;29.00;99.90
44435;DHT22;30138;20.964;105.830;2022-09-28T18:57:26;29.00;99.90
44435;DHT22;30138;20.964;105.830;2022-09-28T19:02:34;29.00;99.90
44435;DHT22;30138;20.964;105.830;2022-09-28T19:07:41;29.00;99.90
44435;DHT22;30138;20.964;105.830;2022-09-28T19:12:49;29.00;99.90
44435;DHT22;30138;20.964;105.830;2022-09-28T19:17:55;29.00;99.90
44435;DHT22;30138;20.964;105.830;2022-09-28T19:23:02;29.00;99.90
44435;DHT22;30138;20.964;105.830;2022-09-28T19:28:10;29.00;99.90
44435;DHT22;30138;20.964;105.830;2022-09-28T19:33:17;29.00;99.90
44435;DHT22;30138;20.964;105.830;2022-09-28T19:38:23;29.00;99.90
44435;DHT22;30138;20.964;105.830;2022-09-28T19:43:31;28.90;99.90
44435;DHT22;30138;20.964;105.830;2022-09-28T19:48:37;29.00;99.90
44435;DHT22;30138;20.964;105.830;2022-09-28T19:53:44;28.90;99.90
44435;DHT22;30138;20.964;105.830;2022-09-28T19:58:52;28.90;99.90
44435;DHT22;30138;20.964;105.830;2022-09-28T20:04:00;28.90;99.90
44435;DHT22;30138;20.964;105.830;2022-09-28T20:09:06;28.90;99.90
44435;DHT22;30138;20.964;105.830;2022-09-28T20:14:16;28.90;99.90
44435;DHT22;30138;20.964;105.830;2022-09-28T20:19:23;28.90;99.90
44435;DHT22;30138;20.964;105.830;2022-09-28T20:24:29;28.90;99.90
44435;DHT22;30138;20.964;105.830;2022-09-28T20:29:38;28.90;99.90
44435;DHT22;30138;20.964;105.830;2022-09-28T20:34:46;28.90;99.90
44435;DHT22;30138;20.964;105.830;2022-09-28T20:39:53;28.90;99.90
44435;DHT22;30138;20.964;105.830;2022-09-28T20:45:02;28.80;99.90
44435;DHT22;30138;20.964;105.830;2022-09-28T20:50:10;28.80;99.90
44435;DHT22;30138;20.964;105.830;2022-09-28T20:55:16;28.80;99.90
44435;DHT22;30138;20.964;105.830;2022-09-28T21:00:25;28.80;99.90
44435;DHT22;30138;20.964;105.830;2022-09-28T21:05:35;28.80;99.90
44435;DHT22;30138;20.964;105.830;2022-09-28T21:10:43;28.80;99.90
44435;DHT22;30138;20.964;105.830;2022-09-28T21:15:52;28.80;99.90
44435;DHT22;30138;20.964;105.830;2022-09-28T21:20:58;28.80;99.90
44435;DHT22;30138;20.964;105.830;2022-09-28T21:26:07;28.80;99.90
44435;DHT22;30138;20.964;105.830;2022-09-28T21:31:16;28.80;99.90
44435;DHT22;30138;20.964;105.830;2022-09-28T21:36:23;28.70;99.90
44435;DHT22;30138;20.964;105.830;2022-09-28T21:41:29;28.80;99.90
44435;DHT22;30138;20.964;105.830;2022-09-28T21:46:38;28.80;99.90
44435;DHT22;30138;20.964;105.830;2022-09-28T21:51:45;28.80;99.90
44435;DHT22;30138;20.964;105.830;2022-09-28T21:56:53;28.70;99.90
44435;DHT22;30138;20.964;105.830;2022-09-28T22:02:01;28.70;99.90
44435;DHT22;30138;20.964;105.830;2022-09-28T22:07:08;28.70;99.90
44435;DHT22;30138;20.964;105.830;2022-09-28T22:12:15;28.70;99.90
44435;DHT22;30138;20.964;105.830;2022-09-28T22:17:24;28.70;99.90
44435;DHT22;30138;20.964;105.830;2022-09-28T22:22:32;28.70;99.90
44435;DHT22;30138;20.964;105.830;2022-09-28T22:27:38;28.70;99.90
44435;DHT22;30138;20.964;105.830;2022-09-28T22:32:47;28.70;99.90
44435;DHT22;30138;20.964;105.830;2022-09-28T22:37:54;28.70;99.90
44435;DHT22;30138;20.964;105.830;2022-09-28T22:43:01;28.70;99.90
44435;DHT22;30138;20.964;105.830;2022-09-28T22:48:10;28.70;99.90
44435;DHT22;30138;20.964;105.830;2022-09-28T22:53:17;28.70;99.90
44435;DHT22;30138;20.964;105.830;2022-09-28T22:58:24;28.70;99.90
44435;DHT22;30138;20.964;105.830;2022-09-28T23:03:33;28.70;99.90
44435;DHT22;30138;20.964;105.830;2022-09-28T23:08:43;28.70;99.90
44435;DHT22;30138;20.964;105.830;2022-09-28T23:13:50;28.70;99.90
44435;DHT22;30138;20.964;105.830;2022-09-28T23:18:59;28.70;99.90
44435;DHT22;30138;20.964;105.830;2022-09-28T23:24:05;28.70;99.90
44435;DHT22;30138;20.964;105.830;2022-09-28T23:29:13;28.70;99.90
44435;DHT22;30138;20.964;105.830;2022-09-28T23:34:22;28.70;99.90
44435;DHT22;30138;20.964;105.830;2022-09-28T23:39:29;28.70;99.90
44435;DHT22;30138;20.964;105.830;2022-09-28T23:44:36;28.70;99.90
44435;DHT22;30138;20.964;105.830;2022-09-28T23:49:45;28.60;99.90
44435;DHT22;30138;20.964;105.830;2022-09-28T23:54:52;28.60;99.90
44435;DHT22;30138;20.964;105.830;2022-09-28T23:59:59;28.60;99.90
